Terminal Aerodrome Forecast
Issued by NWS

Home | Current Version | Previous Version | Text Only | Print | Product List | Glossary On
Versions: 1 2 3 4 5 6 7 8 9 10 11 12 13 14 15
188
FTUS46 KSEW 102205 AAA
TAFBLI
TAF AMD
KBLI 102205Z 1022/1118 15016G26KT P6SM OVC024
     FM110000 15010KT P6SM SCT025 BKN080
     FM110400 16004KT P6SM VCSH BKN035 BKN070
     FM111500 01005KT P6SM OVC070=

USA.gov is the U.S. government's official web portal to all federal, state and local government web resources and services.